sensor_id;sensor_type;location;lat;lon;timestamp;P1;durP1;ratioP1;P2;durP2;ratioP2
74469;SDS011;62918;55.706;37.816;2022-11-20T00:00:06;23.95;;;15.18;;
74469;SDS011;62918;55.706;37.816;2022-11-20T00:00:37;18.65;;;11.60;;
74469;SDS011;62918;55.706;37.816;2022-11-20T00:01:09;22.23;;;13.68;;
74469;SDS011;62918;55.706;37.816;2022-11-20T00:01:47;24.35;;;14.18;;
74469;SDS011;62918;55.706;37.816;2022-11-20T00:02:18;22.58;;;13.65;;
74469;SDS011;62918;55.706;37.816;2022-11-20T00:02:48;22.20;;;14.02;;
74469;SDS011;62918;55.706;37.816;2022-11-20T00:03:19;22.70;;;14.30;;
74469;SDS011;62918;55.706;37.816;2022-11-20T00:03:51;24.52;;;14.18;;
74469;SDS011;62918;55.706;37.816;2022-11-20T00:04:23;23.00;;;14.77;;
74469;SDS011;62918;55.706;37.816;2022-11-20T00:04:53;21.63;;;13.45;;
74469;SDS011;62918;55.706;37.816;2022-11-20T00:05:24;23.17;;;13.75;;
74469;SDS011;62918;55.706;37.816;2022-11-20T00:05:58;21.40;;;13.30;;
74469;SDS011;62918;55.706;37.816;2022-11-20T00:06:30;22.40;;;13.70;;
74469;SDS011;62918;55.706;37.816;2022-11-20T00:07:00;22.65;;;13.57;;
74469;SDS011;62918;55.706;37.816;2022-11-20T00:07:31;24.65;;;14.82;;
74469;SDS011;62918;55.706;37.816;2022-11-20T00:08:01;22.20;;;14.73;;
74469;SDS011;62918;55.706;37.816;2022-11-20T00:08:32;21.90;;;13.57;;
74469;SDS011;62918;55.706;37.816;2022-11-20T00:09:03;22.65;;;13.75;;
74469;SDS011;62918;55.706;37.816;2022-11-20T00:09:35;20.33;;;12.50;;
74469;SDS011;62918;55.706;37.816;2022-11-20T00:10:05;20.15;;;12.43;;
74469;SDS011;62918;55.706;37.816;2022-11-20T00:10:37;22.27;;;14.23;;
74469;SDS011;62918;55.706;37.816;2022-11-20T00:11:12;21.27;;;14.45;;
74469;SDS011;62918;55.706;37.816;2022-11-20T00:11:44;17.75;;;10.82;;
74469;SDS011;62918;55.706;37.816;2022-11-20T00:12:14;17.30;;;10.35;;
74469;SDS011;62918;55.706;37.816;2022-11-20T00:12:46;21.27;;;14.25;;
74469;SDS011;62918;55.706;37.816;2022-11-20T00:13:16;18.85;;;13.80;;
74469;SDS011;62918;55.706;37.816;2022-11-20T00:13:48;21.92;;;13.98;;
74469;SDS011;62918;55.706;37.816;2022-11-20T00:14:20;20.67;;;13.50;;
74469;SDS011;62918;55.706;37.816;2022-11-20T00:14:50;21.65;;;15.35;;
74469;SDS011;62918;55.706;37.816;2022-11-20T00:15:21;20.20;;;12.98;;
74469;SDS011;62918;55.706;37.816;2022-11-20T00:15:56;19.17;;;11.75;;
74469;SDS011;62918;55.706;37.816;2022-11-20T00:16:29;21.30;;;13.55;;
74469;SDS011;62918;55.706;37.816;2022-11-20T00:17:01;18.23;;;11.43;;
74469;SDS011;62918;55.706;37.816;2022-11-20T00:17:32;18.95;;;11.13;;
74469;SDS011;62918;55.706;37.816;2022-11-20T00:18:02;17.85;;;11.43;;
74469;SDS011;62918;55.706;37.816;2022-11-20T00:18:33;20.15;;;13.38;;
74469;SDS011;62918;55.706;37.816;2022-11-20T00:19:04;18.73;;;13.68;;
74469;SDS011;62918;55.706;37.816;2022-11-20T00:19:35;15.90;;;10.40;;
74469;SDS011;62918;55.706;37.816;2022-11-20T00:20:05;20.27;;;14.00;;
74469;SDS011;62918;55.706;37.816;2022-11-20T00:20:36;18.92;;;12.45;;
74469;SDS011;62918;55.706;37.816;2022-11-20T00:21:09;18.08;;;11.50;;
74469;SDS011;62918;55.706;37.816;2022-11-20T00:21:42;16.83;;;10.38;;
74469;SDS011;62918;55.706;37.816;2022-11-20T00:22:12;17.38;;;12.07;;
74469;SDS011;62918;55.706;37.816;2022-11-20T00:22:44;18.55;;;11.70;;
74469;SDS011;62918;55.706;37.816;2022-11-20T00:23:14;14.95;;;10.35;;
74469;SDS011;62918;55.706;37.816;2022-11-20T00:23:45;17.58;;;11.63;;
74469;SDS011;62918;55.706;37.816;2022-11-20T00:24:15;19.45;;;10.98;;
74469;SDS011;62918;55.706;37.816;2022-11-20T00:24:46;16.80;;;12.45;;
74469;SDS011;62918;55.706;37.816;2022-11-20T00:25:16;16.27;;;10.73;;
74469;SDS011;62918;55.706;37.816;2022-11-20T00:25:47;18.10;;;12.00;;
74469;SDS011;62918;55.706;37.816;2022-11-20T00:26:18;18.27;;;12.18;;
74469;SDS011;62918;55.706;37.816;2022-11-20T00:27:21;16.42;;;9.75;;
74469;SDS011;62918;55.706;37.816;2022-11-20T00:27:51;16.20;;;9.63;;
74469;SDS011;62918;55.706;37.816;2022-11-20T00:28:22;16.58;;;10.63;;
74469;SDS011;62918;55.706;37.816;2022-11-20T00:28:56;18.80;;;13.57;;
74469;SDS011;62918;55.706;37.816;2022-11-20T00:29:28;19.25;;;12.63;;
74469;SDS011;62918;55.706;37.816;2022-11-20T00:29:59;15.23;;;10.82;;
74469;SDS011;62918;55.706;37.816;2022-11-20T00:30:29;15.32;;;9.85;;
74469;SDS011;62918;55.706;37.816;2022-11-20T00:31:03;18.05;;;11.93;;
74469;SDS011;62918;55.706;37.816;2022-11-20T00:31:36;16.75;;;10.77;;
74469;SDS011;62918;55.706;37.816;2022-11-20T00:32:07;16.85;;;11.15;;
74469;SDS011;62918;55.706;37.816;2022-11-20T00:32:37;15.35;;;10.00;;
74469;SDS011;62918;55.706;37.816;2022-11-20T00:33:08;17.27;;;10.77;;
74469;SDS011;62918;55.706;37.816;2022-11-20T00:33:38;16.48;;;10.90;;
74469;SDS011;62918;55.706;37.816;2022-11-20T00:34:09;14.80;;;9.70;;
74469;SDS011;62918;55.706;37.816;2022-11-20T00:34:40;14.70;;;9.98;;
74469;SDS011;62918;55.706;37.816;2022-11-20T00:35:10;15.80;;;10.40;;
74469;SDS011;62918;55.706;37.816;2022-11-20T00:35:41;16.08;;;10.48;;
74469;SDS011;62918;55.706;37.816;2022-11-20T00:36:13;16.27;;;11.52;;
74469;SDS011;62918;55.706;37.816;2022-11-20T00:36:48;14.80;;;9.25;;
74469;SDS011;62918;55.706;37.816;2022-11-20T00:37:18;16.35;;;12.10;;
74469;SDS011;62918;55.706;37.816;2022-11-20T00:37:49;17.23;;;11.10;;
74469;SDS011;62918;55.706;37.816;2022-11-20T00:38:20;15.73;;;10.30;;
74469;SDS011;62918;55.706;37.816;2022-11-20T00:38:51;14.05;;;9.18;;
74469;SDS011;62918;55.706;37.816;2022-11-20T00:39:25;12.93;;;8.52;;
74469;SDS011;62918;55.706;37.816;2022-11-20T00:39:56;15.55;;;10.48;;
74469;SDS011;62918;55.706;37.816;2022-11-20T00:40:26;14.65;;;10.07;;
74469;SDS011;62918;55.706;37.816;2022-11-20T00:40:57;15.63;;;10.50;;
74469;SDS011;62918;55.706;37.816;2022-11-20T00:41:29;14.38;;;9.63;;
74469;SDS011;62918;55.706;37.816;2022-11-20T00:42:00;13.43;;;9.30;;
74469;SDS011;62918;55.706;37.816;2022-11-20T00:42:30;15.40;;;10.10;;
74469;SDS011;62918;55.706;37.816;2022-11-20T00:43:02;14.60;;;9.88;;
74469;SDS011;62918;55.706;37.816;2022-11-20T00:43:33;15.73;;;9.77;;
74469;SDS011;62918;55.706;37.816;2022-11-20T00:44:04;12.85;;;9.38;;
74469;SDS011;62918;55.706;37.816;2022-11-20T00:44:35;14.00;;;9.38;;
74469;SDS011;62918;55.706;37.816;2022-11-20T00:45:05;14.63;;;9.85;;
74469;SDS011;62918;55.706;37.816;2022-11-20T00:45:37;15.65;;;10.80;;
74469;SDS011;62918;55.706;37.816;2022-11-20T00:46:14;16.00;;;10.55;;
74469;SDS011;62918;55.706;37.816;2022-11-20T00:46:46;13.50;;;10.07;;
74469;SDS011;62918;55.706;37.816;2022-11-20T00:47:16;13.45;;;8.73;;
74469;SDS011;62918;55.706;37.816;2022-11-20T00:47:47;15.00;;;9.73;;
74469;SDS011;62918;55.706;37.816;2022-11-20T00:48:18;14.23;;;9.15;;
74469;SDS011;62918;55.706;37.816;2022-11-20T00:48:48;16.13;;;9.98;;
74469;SDS011;62918;55.706;37.816;2022-11-20T00:49:19;15.15;;;9.73;;
74469;SDS011;62918;55.706;37.816;2022-11-20T00:49:50;15.90;;;10.70;;
74469;SDS011;62918;55.706;37.816;2022-11-20T00:50:20;13.57;;;9.50;;
74469;SDS011;62918;55.706;37.816;2022-11-20T00:50:51;13.75;;;9.90;;
74469;SDS011;62918;55.706;37.816;2022-11-20T00:51:23;13.43;;;8.55;;
74469;SDS011;62918;55.706;37.816;2022-11-20T00:51:55;15.40;;;10.32;;
74469;SDS011;62918;55.706;37.816;2022-11-20T00:52:25;13.80;;;8.85;;
74469;SDS011;62918;55.706;37.816;2022-11-20T00:52:56;14.40;;;9.50;;
74469;SDS011;62918;55.706;37.816;2022-11-20T00:53:26;14.32;;;9.93;;
74469;SDS011;62918;55.706;37.816;2022-11-20T00:53:57;14.73;;;9.30;;
74469;SDS011;62918;55.706;37.816;2022-11-20T00:55:30;13.13;;;8.63;;
74469;SDS011;62918;55.706;37.816;2022-11-20T00:56:02;13.10;;;8.23;;
74469;SDS011;62918;55.706;37.816;2022-11-20T00:56:35;14.85;;;9.38;;
74469;SDS011;62918;55.706;37.816;2022-11-20T00:57:05;14.15;;;10.05;;
74469;SDS011;62918;55.706;37.816;2022-11-20T00:57:36;16.38;;;10.45;;
74469;SDS011;62918;55.706;37.816;2022-11-20T00:58:06;13.65;;;8.43;;
74469;SDS011;62918;55.706;37.816;2022-11-20T00:58:37;14.43;;;9.25;;
74469;SDS011;62918;55.706;37.816;2022-11-20T00:59:09;12.65;;;8.52;;
74469;SDS011;62918;55.706;37.816;2022-11-20T00:59:40;13.32;;;9.00;;
74469;SDS011;62918;55.706;37.816;2022-11-20T01:00:11;13.70;;;8.07;;
74469;SDS011;62918;55.706;37.816;2022-11-20T01:00:42;13.35;;;9.38;;
74469;SDS011;62918;55.706;37.816;2022-11-20T01:01:13;14.30;;;9.35;;
74469;SDS011;62918;55.706;37.816;2022-11-20T01:01:45;13.75;;;9.70;;
74469;SDS011;62918;55.706;37.816;2022-11-20T01:02:16;15.95;;;9.90;;
74469;SDS011;62918;55.706;37.816;2022-11-20T01:02:47;13.18;;;9.55;;
74469;SDS011;62918;55.706;37.816;2022-11-20T01:03:17;14.50;;;9.52;;
74469;SDS011;62918;55.706;37.816;2022-11-20T01:03:49;12.90;;;8.68;;
74469;SDS011;62918;55.706;37.816;2022-11-20T01:04:21;12.98;;;7.82;;
74469;SDS011;62918;55.706;37.816;2022-11-20T01:04:51;13.90;;;9.55;;
74469;SDS011;62918;55.706;37.816;2022-11-20T01:05:22;14.45;;;9.27;;
74469;SDS011;62918;55.706;37.816;2022-11-20T01:05:52;13.20;;;8.88;;
74469;SDS011;62918;55.706;37.816;2022-11-20T01:06:24;12.82;;;8.65;;
74469;SDS011;62918;55.706;37.816;2022-11-20T01:06:56;14.15;;;9.43;;
74469;SDS011;62918;55.706;37.816;2022-11-20T01:07:27;15.02;;;9.50;;
74469;SDS011;62918;55.706;37.816;2022-11-20T01:07:57;13.18;;;8.55;;
74469;SDS011;62918;55.706;37.816;2022-11-20T01:08:32;12.07;;;8.27;;
74469;SDS011;62918;55.706;37.816;2022-11-20T01:09:07;14.13;;;8.55;;
74469;SDS011;62918;55.706;37.816;2022-11-20T01:09:43;13.52;;;8.80;;
74469;SDS011;62918;55.706;37.816;2022-11-20T01:10:13;13.65;;;8.45;;
74469;SDS011;62918;55.706;37.816;2022-11-20T01:10:44;11.85;;;7.05;;
74469;SDS011;62918;55.706;37.816;2022-11-20T01:11:17;12.70;;;8.15;;
74469;SDS011;62918;55.706;37.816;2022-11-20T01:11:50;13.45;;;8.35;;
74469;SDS011;62918;55.706;37.816;2022-11-20T01:12:21;14.73;;;8.80;;
74469;SDS011;62918;55.706;37.816;2022-11-20T01:12:52;11.48;;;7.57;;
74469;SDS011;62918;55.706;37.816;2022-11-20T01:13:42;10.50;;;6.18;;
74469;SDS011;62918;55.706;37.816;2022-11-20T01:14:14;12.98;;;7.45;;
74469;SDS011;62918;55.706;37.816;2022-11-20T01:14:46;11.57;;;7.05;;
74469;SDS011;62918;55.706;37.816;2022-11-20T01:15:17;12.57;;;8.13;;
74469;SDS011;62918;55.706;37.816;2022-11-20T01:15:48;11.80;;;7.20;;
74469;SDS011;62918;55.706;37.816;2022-11-20T01:16:22;12.90;;;7.28;;
74469;SDS011;62918;55.706;37.816;2022-11-20T01:17:04;11.43;;;6.80;;
74469;SDS011;62918;55.706;37.816;2022-11-20T01:17:35;16.65;;;7.63;;
74469;SDS011;62918;55.706;37.816;2022-11-20T01:18:05;11.25;;;7.47;;
74469;SDS011;62918;55.706;37.816;2022-11-20T01:18:37;13.18;;;7.55;;
74469;SDS011;62918;55.706;37.816;2022-11-20T01:19:10;12.57;;;8.15;;
74469;SDS011;62918;55.706;37.816;2022-11-20T01:19:43;13.27;;;6.78;;
74469;SDS011;62918;55.706;37.816;2022-11-20T01:20:14;12.73;;;7.70;;
74469;SDS011;62918;55.706;37.816;2022-11-20T01:20:44;12.20;;;7.20;;
74469;SDS011;62918;55.706;37.816;2022-11-20T01:21:16;12.25;;;6.97;;
74469;SDS011;62918;55.706;37.816;2022-11-20T01:21:49;12.95;;;8.00;;
74469;SDS011;62918;55.706;37.816;2022-11-20T01:22:21;12.98;;;8.15;;
74469;SDS011;62918;55.706;37.816;2022-11-20T01:22:52;13.75;;;8.05;;
74469;SDS011;62918;55.706;37.816;2022-11-20T01:23:22;12.52;;;7.43;;
74469;SDS011;62918;55.706;37.816;2022-11-20T01:23:53;12.80;;;7.78;;
74469;SDS011;62918;55.706;37.816;2022-11-20T01:24:24;14.02;;;7.88;;
74469;SDS011;62918;55.706;37.816;2022-11-20T01:24:55;10.88;;;6.75;;
74469;SDS011;62918;55.706;37.816;2022-11-20T01:25:25;10.45;;;6.63;;
74469;SDS011;62918;55.706;37.816;2022-11-20T01:25:56;11.88;;;7.53;;
74469;SDS011;62918;55.706;37.816;2022-11-20T01:26:28;12.63;;;7.75;;
74469;SDS011;62918;55.706;37.816;2022-11-20T01:27:00;13.73;;;7.53;;
74469;SDS011;62918;55.706;37.816;2022-11-20T01:27:31;12.40;;;7.32;;
74469;SDS011;62918;55.706;37.816;2022-11-20T01:28:01;12.32;;;7.50;;
74469;SDS011;62918;55.706;37.816;2022-11-20T01:28:32;13.27;;;7.05;;
74469;SDS011;62918;55.706;37.816;2022-11-20T01:29:03;12.65;;;8.75;;
74469;SDS011;62918;55.706;37.816;2022-11-20T01:29:35;12.02;;;7.05;;
74469;SDS011;62918;55.706;37.816;2022-11-20T01:30:05;11.90;;;7.88;;
74469;SDS011;62918;55.706;37.816;2022-11-20T01:30:36;12.13;;;7.30;;
74469;SDS011;62918;55.706;37.816;2022-11-20T01:31:10;14.60;;;7.50;;
74469;SDS011;62918;55.706;37.816;2022-11-20T01:32:35;11.63;;;7.18;;
74469;SDS011;62918;55.706;37.816;2022-11-20T01:33:05;10.65;;;6.28;;
74469;SDS011;62918;55.706;37.816;2022-11-20T01:33:36;16.23;;;7.50;;
74469;SDS011;62918;55.706;37.816;2022-11-20T01:34:08;13.63;;;7.50;;
74469;SDS011;62918;55.706;37.816;2022-11-20T01:34:41;12.13;;;7.05;;
74469;SDS011;62918;55.706;37.816;2022-11-20T01:35:12;13.55;;;7.53;;
74469;SDS011;62918;55.706;37.816;2022-11-20T01:35:42;11.52;;;6.50;;
74469;SDS011;62918;55.706;37.816;2022-11-20T01:36:13;14.52;;;9.05;;
74469;SDS011;62918;55.706;37.816;2022-11-20T01:36:45;13.57;;;8.07;;
74469;SDS011;62918;55.706;37.816;2022-11-20T01:37:16;13.60;;;7.85;;
74469;SDS011;62918;55.706;37.816;2022-11-20T01:37:46;13.95;;;8.35;;
74469;SDS011;62918;55.706;37.816;2022-11-20T01:38:17;14.20;;;7.80;;
74469;SDS011;62918;55.706;37.816;2022-11-20T01:38:53;13.52;;;7.47;;
74469;SDS011;62918;55.706;37.816;2022-11-20T01:39:26;13.75;;;8.05;;
74469;SDS011;62918;55.706;37.816;2022-11-20T01:39:57;12.80;;;8.38;;
74469;SDS011;62918;55.706;37.816;2022-11-20T01:40:27;11.75;;;7.05;;
74469;SDS011;62918;55.706;37.816;2022-11-20T01:40:58;12.15;;;8.43;;
74469;SDS011;62918;55.706;37.816;2022-11-20T01:41:29;12.55;;;7.68;;
74469;SDS011;62918;55.706;37.816;2022-11-20T01:42:19;11.77;;;7.35;;
74469;SDS011;62918;55.706;37.816;2022-11-20T01:43:16;11.10;;;7.00;;
74469;SDS011;62918;55.706;37.816;2022-11-20T01:43:51;12.48;;;7.10;;
74469;SDS011;62918;55.706;37.816;2022-11-20T01:44:39;11.63;;;7.72;;
74469;SDS011;62918;55.706;37.816;2022-11-20T01:46:20;12.68;;;7.57;;
74469;SDS011;62918;55.706;37.816;2022-11-20T01:46:57;11.40;;;6.78;;
74469;SDS011;62918;55.706;37.816;2022-11-20T01:47:37;12.10;;;7.15;;
74469;SDS011;62918;55.706;37.816;2022-11-20T01:48:14;11.52;;;6.82;;
74469;SDS011;62918;55.706;37.816;2022-11-20T01:49:34;11.85;;;7.32;;
74469;SDS011;62918;55.706;37.816;2022-11-20T01:50:49;10.68;;;5.90;;
74469;SDS011;62918;55.706;37.816;2022-11-20T01:52:17;12.73;;;6.38;;
74469;SDS011;62918;55.706;37.816;2022-11-20T01:52:54;12.77;;;7.80;;
74469;SDS011;62918;55.706;37.816;2022-11-20T01:53:29;13.77;;;7.15;;
74469;SDS011;62918;55.706;37.816;2022-11-20T01:54:05;13.10;;;7.63;;
74469;SDS011;62918;55.706;37.816;2022-11-20T01:54:43;11.27;;;7.30;;
74469;SDS011;62918;55.706;37.816;2022-11-20T01:55:19;12.05;;;7.78;;
74469;SDS011;62918;55.706;37.816;2022-11-20T01:55:56;11.32;;;6.82;;
74469;SDS011;62918;55.706;37.816;2022-11-20T01:56:29;11.13;;;6.57;;
74469;SDS011;62918;55.706;37.816;2022-11-20T01:57:03;10.50;;;6.28;;
74469;SDS011;62918;55.706;37.816;2022-11-20T01:57:36;11.65;;;7.45;;
74469;SDS011;62918;55.706;37.816;2022-11-20T01:58:08;13.00;;;7.40;;
74469;SDS011;62918;55.706;37.816;2022-11-20T01:58:40;12.77;;;7.72;;
74469;SDS011;62918;55.706;37.816;2022-11-20T01:59:17;11.73;;;7.13;;
74469;SDS011;62918;55.706;37.816;2022-11-20T01:59:57;12.80;;;7.25;;
74469;SDS011;62918;55.706;37.816;2022-11-20T02:00:49;10.80;;;6.22;;
74469;SDS011;62918;55.706;37.816;2022-11-20T02:01:20;10.73;;;6.50;;
74469;SDS011;62918;55.706;37.816;2022-11-20T02:01:51;12.88;;;7.15;;
74469;SDS011;62918;55.706;37.816;2022-11-20T02:02:22;12.82;;;7.45;;
74469;SDS011;62918;55.706;37.816;2022-11-20T02:02:54;12.30;;;6.72;;
74469;SDS011;62918;55.706;37.816;2022-11-20T02:03:47;10.70;;;6.70;;
74469;SDS011;62918;55.706;37.816;2022-11-20T02:04:18;11.05;;;6.70;;
74469;SDS011;62918;55.706;37.816;2022-11-20T02:04:50;11.80;;;6.10;;
74469;SDS011;62918;55.706;37.816;2022-11-20T02:05:28;10.77;;;6.28;;
74469;SDS011;62918;55.706;37.816;2022-11-20T02:06:44;12.52;;;6.60;;
74469;SDS011;62918;55.706;37.816;2022-11-20T02:07:23;11.82;;;6.22;;
74469;SDS011;62918;55.706;37.816;2022-11-20T02:07:54;12.32;;;6.80;;
74469;SDS011;62918;55.706;37.816;2022-11-20T02:08:27;11.27;;;6.82;;
74469;SDS011;62918;55.706;37.816;2022-11-20T02:08:58;13.98;;;7.10;;
74469;SDS011;62918;55.706;37.816;2022-11-20T02:09:28;13.57;;;8.15;;
74469;SDS011;62918;55.706;37.816;2022-11-20T02:09:59;13.73;;;7.47;;
74469;SDS011;62918;55.706;37.816;2022-11-20T02:10:30;14.38;;;8.35;;
74469;SDS011;62918;55.706;37.816;2022-11-20T02:11:01;11.32;;;7.57;;
74469;SDS011;62918;55.706;37.816;2022-11-20T02:11:31;11.95;;;8.43;;
74469;SDS011;62918;55.706;37.816;2022-11-20T02:12:02;11.15;;;7.57;;
74469;SDS011;62918;55.706;37.816;2022-11-20T02:12:34;12.00;;;7.65;;
74469;SDS011;62918;55.706;37.816;2022-11-20T02:13:23;11.50;;;6.82;;
74469;SDS011;62918;55.706;37.816;2022-11-20T02:14:12;12.18;;;6.57;;
74469;SDS011;62918;55.706;37.816;2022-11-20T02:14:45;10.52;;;6.28;;
74469;SDS011;62918;55.706;37.816;2022-11-20T02:15:15;11.00;;;7.43;;
74469;SDS011;62918;55.706;37.816;2022-11-20T02:15:46;10.85;;;6.43;;
74469;SDS011;62918;55.706;37.816;2022-11-20T02:16:50;10.57;;;6.55;;
74469;SDS011;62918;55.706;37.816;2022-11-20T02:17:22;10.55;;;6.35;;
74469;SDS011;62918;55.706;37.816;2022-11-20T02:17:53;11.75;;;7.40;;
74469;SDS011;62918;55.706;37.816;2022-11-20T02:18:24;12.85;;;7.43;;
74469;SDS011;62918;55.706;37.816;2022-11-20T02:18:55;11.52;;;6.82;;
74469;SDS011;62918;55.706;37.816;2022-11-20T02:19:30;11.82;;;7.03;;
74469;SDS011;62918;55.706;37.816;2022-11-20T02:20:02;11.48;;;7.10;;
74469;SDS011;62918;55.706;37.816;2022-11-20T02:20:33;11.18;;;7.00;;
74469;SDS011;62918;55.706;37.816;2022-11-20T02:21:09;12.95;;;7.50;;
74469;SDS011;62918;55.706;37.816;2022-11-20T02:22:28;11.57;;;6.68;;
74469;SDS011;62918;55.706;37.816;2022-11-20T02:23:11;11.88;;;6.75;;
74469;SDS011;62918;55.706;37.816;2022-11-20T02:24:34;9.43;;;6.20;;
74469;SDS011;62918;55.706;37.816;2022-11-20T02:25:05;12.00;;;7.22;;
74469;SDS011;62918;55.706;37.816;2022-11-20T02:25:37;11.68;;;7.88;;
74469;SDS011;62918;55.706;37.816;2022-11-20T02:26:10;11.45;;;7.68;;
74469;SDS011;62918;55.706;37.816;2022-11-20T02:27:48;12.20;;;7.35;;
74469;SDS011;62918;55.706;37.816;2022-11-20T02:28:18;11.48;;;6.55;;
74469;SDS011;62918;55.706;37.816;2022-11-20T02:28:49;10.60;;;6.95;;
74469;SDS011;62918;55.706;37.816;2022-11-20T02:29:28;11.07;;;6.70;;
74469;SDS011;62918;55.706;37.816;2022-11-20T02:30:10;11.20;;;7.10;;
74469;SDS011;62918;55.706;37.816;2022-11-20T02:30:41;11.45;;;7.43;;
74469;SDS011;62918;55.706;37.816;2022-11-20T02:31:11;12.95;;;7.78;;
74469;SDS011;62918;55.706;37.816;2022-11-20T02:31:42;10.68;;;6.30;;
74469;SDS011;62918;55.706;37.816;2022-11-20T02:32:20;11.88;;;6.53;;
74469;SDS011;62918;55.706;37.816;2022-11-20T02:32:52;12.38;;;7.40;;
74469;SDS011;62918;55.706;37.816;2022-11-20T02:33:23;13.27;;;7.75;;
74469;SDS011;62918;55.706;37.816;2022-11-20T02:33:54;13.10;;;8.73;;
74469;SDS011;62918;55.706;37.816;2022-11-20T02:34:26;12.35;;;6.93;;
74469;SDS011;62918;55.706;37.816;2022-11-20T02:34:57;13.65;;;7.72;;
74469;SDS011;62918;55.706;37.816;2022-11-20T02:35:58;9.30;;;5.55;;
74469;SDS011;62918;55.706;37.816;2022-11-20T02:36:28;9.93;;;6.75;;
74469;SDS011;62918;55.706;37.816;2022-11-20T02:37:02;10.50;;;6.60;;
74469;SDS011;62918;55.706;37.816;2022-11-20T02:37:34;10.57;;;6.50;;
74469;SDS011;62918;55.706;37.816;2022-11-20T02:38:08;13.27;;;8.55;;
74469;SDS011;62918;55.706;37.816;2022-11-20T02:38:40;12.35;;;8.13;;
74469;SDS011;62918;55.706;37.816;2022-11-20T02:39:11;10.90;;;6.88;;
74469;SDS011;62918;55.706;37.816;2022-11-20T02:39:44;11.50;;;7.03;;
74469;SDS011;62918;55.706;37.816;2022-11-20T02:40:16;11.45;;;7.60;;
74469;SDS011;62918;55.706;37.816;2022-11-20T02:40:47;11.75;;;7.00;;
74469;SDS011;62918;55.706;37.816;2022-11-20T02:41:17;12.75;;;7.40;;
74469;SDS011;62918;55.706;37.816;2022-11-20T02:41:48;11.32;;;7.00;;
74469;SDS011;62918;55.706;37.816;2022-11-20T02:42:18;10.75;;;6.95;;
74469;SDS011;62918;55.706;37.816;2022-11-20T02:42:52;12.38;;;7.25;;
74469;SDS011;62918;55.706;37.816;2022-11-20T02:43:23;13.00;;;8.25;;
74469;SDS011;62918;55.706;37.816;2022-11-20T02:43:54;13.80;;;7.47;;
74469;SDS011;62918;55.706;37.816;2022-11-20T02:44:24;11.48;;;7.05;;
74469;SDS011;62918;55.706;37.816;2022-11-20T02:44:55;12.10;;;7.30;;
74469;SDS011;62918;55.706;37.816;2022-11-20T02:45:25;14.52;;;8.63;;
74469;SDS011;62918;55.706;37.816;2022-11-20T02:45:56;12.35;;;7.55;;
74469;SDS011;62918;55.706;37.816;2022-11-20T02:46:27;11.52;;;6.53;;
74469;SDS011;62918;55.706;37.816;2022-11-20T02:46:58;11.90;;;7.35;;
74469;SDS011;62918;55.706;37.816;2022-11-20T02:47:29;12.45;;;6.88;;
74469;SDS011;62918;55.706;37.816;2022-11-20T02:47:59;11.02;;;6.75;;
74469;SDS011;62918;55.706;37.816;2022-11-20T02:48:30;13.60;;;7.97;;
74469;SDS011;62918;55.706;37.816;2022-11-20T02:49:03;11.38;;;6.63;;
74469;SDS011;62918;55.706;37.816;2022-11-20T02:49:34;12.40;;;7.28;;
74469;SDS011;62918;55.706;37.816;2022-11-20T02:50:05;11.48;;;6.88;;
74469;SDS011;62918;55.706;37.816;2022-11-20T02:50:36;11.02;;;7.22;;
74469;SDS011;62918;55.706;37.816;2022-11-20T02:51:08;13.07;;;7.65;;
74469;SDS011;62918;55.706;37.816;2022-11-20T02:51:39;11.90;;;7.97;;
74469;SDS011;62918;55.706;37.816;2022-11-20T02:52:09;12.82;;;7.15;;
74469;SDS011;62918;55.706;37.816;2022-11-20T02:52:40;12.80;;;7.32;;
74469;SDS011;62918;55.706;37.816;2022-11-20T02:53:11;14.02;;;7.60;;
74469;SDS011;62918;55.706;37.816;2022-11-20T02:53:41;12.02;;;7.93;;
74469;SDS011;62918;55.706;37.816;2022-11-20T02:54:12;12.60;;;7.20;;
74469;SDS011;62918;55.706;37.816;2022-11-20T02:54:42;12.23;;;6.93;;
74469;SDS011;62918;55.706;37.816;2022-11-20T02:55:13;10.80;;;7.05;;
74469;SDS011;62918;55.706;37.816;2022-11-20T02:55:44;12.70;;;7.85;;
74469;SDS011;62918;55.706;37.816;2022-11-20T02:56:14;11.65;;;7.93;;
74469;SDS011;62918;55.706;37.816;2022-11-20T02:56:45;13.18;;;8.15;;
74469;SDS011;62918;55.706;37.816;2022-11-20T02:57:16;13.38;;;8.52;;
74469;SDS011;62918;55.706;37.816;2022-11-20T02:57:46;12.25;;;7.55;;
74469;SDS011;62918;55.706;37.816;2022-11-20T02:58:17;12.65;;;7.15;;
74469;SDS011;62918;55.706;37.816;2022-11-20T02:58:47;12.50;;;7.60;;
74469;SDS011;62918;55.706;37.816;2022-11-20T02:59:18;14.27;;;8.15;;
74469;SDS011;62918;55.706;37.816;2022-11-20T02:59:49;13.00;;;7.53;;
74469;SDS011;62918;55.706;37.816;2022-11-20T03:00:19;12.75;;;7.40;;
74469;SDS011;62918;55.706;37.816;2022-11-20T03:00:50;12.25;;;7.13;;
74469;SDS011;62918;55.706;37.816;2022-11-20T03:01:20;12.45;;;7.82;;
74469;SDS011;62918;55.706;37.816;2022-11-20T03:01:51;11.60;;;6.85;;
74469;SDS011;62918;55.706;37.816;2022-11-20T03:02:21;12.52;;;7.55;;
74469;SDS011;62918;55.706;37.816;2022-11-20T03:02:52;11.43;;;6.95;;
74469;SDS011;62918;55.706;37.816;2022-11-20T03:03:23;13.93;;;7.60;;
74469;SDS011;62918;55.706;37.816;2022-11-20T03:03:53;12.80;;;7.22;;
74469;SDS011;62918;55.706;37.816;2022-11-20T03:04:24;12.20;;;7.65;;
74469;SDS011;62918;55.706;37.816;2022-11-20T03:04:55;11.55;;;7.03;;
74469;SDS011;62918;55.706;37.816;2022-11-20T03:05:25;12.52;;;7.10;;
74469;SDS011;62918;55.706;37.816;2022-11-20T03:05:58;11.18;;;6.68;;
74469;SDS011;62918;55.706;37.816;2022-11-20T03:06:29;12.70;;;7.90;;
74469;SDS011;62918;55.706;37.816;2022-11-20T03:06:59;12.68;;;7.65;;
74469;SDS011;62918;55.706;37.816;2022-11-20T03:07:30;10.85;;;6.93;;
74469;SDS011;62918;55.706;37.816;2022-11-20T03:08:00;11.93;;;6.80;;
74469;SDS011;62918;55.706;37.816;2022-11-20T03:08:31;11.00;;;7.07;;
74469;SDS011;62918;55.706;37.816;2022-11-20T03:09:01;10.95;;;6.40;;
74469;SDS011;62918;55.706;37.816;2022-11-20T03:09:32;11.48;;;6.57;;
74469;SDS011;62918;55.706;37.816;2022-11-20T03:10:03;11.88;;;6.57;;
74469;SDS011;62918;55.706;37.816;2022-11-20T03:10:34;12.02;;;7.70;;
74469;SDS011;62918;55.706;37.816;2022-11-20T03:11:06;13.93;;;7.28;;
74469;SDS011;62918;55.706;37.816;2022-11-20T03:11:37;14.07;;;8.20;;
74469;SDS011;62918;55.706;37.816;2022-11-20T03:12:08;13.35;;;6.55;;
74469;SDS011;62918;55.706;37.816;2022-11-20T03:12:38;10.73;;;6.85;;
74469;SDS011;62918;55.706;37.816;2022-11-20T03:13:09;14.25;;;8.70;;
74469;SDS011;62918;55.706;37.816;2022-11-20T03:13:39;12.68;;;8.43;;
74469;SDS011;62918;55.706;37.816;2022-11-20T03:14:10;11.30;;;6.88;;
74469;SDS011;62918;55.706;37.816;2022-11-20T03:14:41;14.32;;;7.30;;
74469;SDS011;62918;55.706;37.816;2022-11-20T03:15:11;15.48;;;8.43;;
74469;SDS011;62918;55.706;37.816;2022-11-20T03:15:42;13.63;;;8.57;;
74469;SDS011;62918;55.706;37.816;2022-11-20T03:16:16;12.25;;;6.90;;
74469;SDS011;62918;55.706;37.816;2022-11-20T03:16:48;12.55;;;6.97;;
74469;SDS011;62918;55.706;37.816;2022-11-20T03:17:18;10.85;;;6.18;;
74469;SDS011;62918;55.706;37.816;2022-11-20T03:17:52;12.20;;;6.90;;